createdAt,value
2023-03-21T00:01:03.904Z,101315.28
2023-03-21T00:05:16.248Z,101311.75
2023-03-21T00:09:28.118Z,101306.38
2023-03-21T00:13:42.381Z,101310.31
2023-03-21T00:17:58.393Z,101297.91
2023-03-21T00:22:09.973Z,101305.97
2023-03-21T00:26:22.603Z,101304.94
2023-03-21T00:30:34.182Z,101299.97
2023-03-21T00:35:00.224Z,101280.38
2023-03-21T00:39:18.537Z,101271.69
2023-03-21T00:43:31.530Z,101276.88
2023-03-21T00:47:43.426Z,101277.06
2023-03-21T00:51:57.357Z,101264.66
2023-03-21T00:56:11.239Z,101258.88
2023-03-21T01:00:23.013Z,101259.09
2023-03-21T01:04:34.658Z,101260.75
2023-03-21T01:08:52.697Z,101255.56
2023-03-21T01:13:04.947Z,101228.50
2023-03-21T01:17:16.596Z,101242.97
2023-03-21T01:21:28.345Z,101228.50
2023-03-21T01:25:40.676Z,101245.03
2023-03-21T01:29:52.459Z,101237.59
2023-03-21T01:34:04.454Z,101214.28
2023-03-21T01:38:16.220Z,101223.78
2023-03-21T01:42:29.109Z,101213.25
2023-03-21T01:46:57.381Z,101210.78
2023-03-21T01:51:43.885Z,101223.97
2023-03-21T01:56:20.879Z,101219.81
2023-03-21T02:00:39.093Z,101212.44
2023-03-21T02:05:05.635Z,101202.28
2023-03-21T02:09:22.556Z,101213.00
2023-03-21T02:13:35.361Z,101190.69
2023-03-21T02:17:56.790Z,101178.31
2023-03-21T02:22:49.356Z,101182.44
2023-03-21T02:27:18.904Z,101180.97
2023-03-21T02:31:41.359Z,101190.03
2023-03-21T02:36:19.056Z,101176.63
2023-03-21T02:40:39.617Z,101163.25
2023-03-21T02:45:11.644Z,101160.34
2023-03-21T02:49:35.597Z,101152.28
2023-03-21T02:54:10.220Z,101150.41
2023-03-21T02:58:30.295Z,101151.66
2023-03-21T03:02:43.729Z,101163.63
2023-03-21T03:07:11.346Z,101159.09
2023-03-21T03:11:28.959Z,101152.69
2023-03-21T03:16:00.299Z,101159.09
2023-03-21T03:20:36.740Z,101147.97
2023-03-21T03:25:04.859Z,101139.28
2023-03-21T03:29:29.018Z,101148.78
2023-03-21T03:33:46.864Z,101137.84
2023-03-21T03:38:02.721Z,101138.66
2023-03-21T03:42:28.385Z,101138.72
2023-03-21T03:47:17.555Z,101133.50
2023-03-21T03:51:42.687Z,101133.50
2023-03-21T03:56:08.167Z,101138.25
2023-03-21T04:00:20.939Z,101141.75
2023-03-21T04:04:36.907Z,101125.44
2023-03-21T04:08:48.976Z,101135.34
2023-03-21T04:13:00.719Z,101141.97
2023-03-21T04:17:19.246Z,101136.59
2023-03-21T04:21:32.718Z,101126.47
2023-03-21T04:25:55.915Z,101112.00
2023-03-21T04:30:12.219Z,101115.50
2023-03-21T04:34:40.259Z,101121.50
2023-03-21T04:38:52.647Z,101112.81
2023-03-21T04:43:04.415Z,101125.41
2023-03-21T04:47:17.018Z,101110.75
2023-03-21T04:51:28.773Z,101106.59
2023-03-21T04:55:40.544Z,101109.72
2023-03-21T04:59:52.150Z,101094.44
2023-03-21T05:04:04.952Z,101099.41
2023-03-21T05:08:18.920Z,101105.78
2023-03-21T05:12:30.574Z,101090.53
2023-03-21T05:16:45.166Z,101089.94
2023-03-21T05:20:57.424Z,101084.78
2023-03-21T05:25:10.321Z,101099.88
2023-03-21T05:29:42.211Z,101097.41
2023-03-21T05:33:55.481Z,101101.72
2023-03-21T05:38:07.270Z,101085.44
2023-03-21T05:42:31.531Z,101085.44
2023-03-21T05:46:43.617Z,101088.94
2023-03-21T05:50:56.570Z,101092.22
2023-03-21T05:55:09.117Z,101087.69
2023-03-21T05:59:22.241Z,101069.50
2023-03-21T06:03:37.311Z,101071.97
2023-03-21T06:07:52.771Z,101087.19
2023-03-21T06:12:04.695Z,101081.41
2023-03-21T06:16:35.153Z,101079.94
2023-03-21T06:20:47.336Z,101082.41
2023-03-21T06:24:59.401Z,101072.72
2023-03-21T06:29:12.630Z,101094.75
2023-03-21T06:33:28.088Z,101080.78
2023-03-21T06:37:39.841Z,101088.41
2023-03-21T06:41:51.804Z,101077.06
2023-03-21T06:46:04.323Z,101082.38
2023-03-21T06:50:16.524Z,101066.91
2023-03-21T06:54:29.575Z,101078.44
2023-03-21T06:58:45.348Z,101079.03
2023-03-21T07:03:07.727Z,101073.44
2023-03-21T07:07:19.728Z,101078.34
2023-03-21T07:11:32.517Z,101070.72
2023-03-21T07:15:44.583Z,101058.47
2023-03-21T07:19:57.361Z,101060.69
2023-03-21T07:24:09.047Z,101088.06
2023-03-21T07:28:20.882Z,101072.28
2023-03-21T07:32:34.530Z,101083.78
2023-03-21T07:36:47.227Z,101093.19
2023-03-21T07:40:59.823Z,101074.34
2023-03-21T07:45:21.975Z,101083.09
2023-03-21T07:49:33.746Z,101073.59
2023-03-21T07:53:48.576Z,101091.97
2023-03-21T07:58:01.394Z,101085.16
2023-03-21T08:02:17.457Z,101097.44
2023-03-21T08:06:29.311Z,101092.09
2023-03-21T08:10:43.300Z,101076.22
2023-03-21T08:14:55.000Z,101080.47
2023-03-21T08:19:06.708Z,101066.81
2023-03-21T08:23:18.688Z,101081.78
2023-03-21T08:27:30.842Z,101066.59
2023-03-21T08:31:42.494Z,101061.97
2023-03-21T08:35:54.865Z,101049.13
2023-03-21T08:40:11.296Z,101060.72
2023-03-21T08:44:25.288Z,101058.84
2023-03-21T08:48:38.814Z,101048.09
2023-03-21T08:52:51.130Z,101057.31
2023-03-21T08:57:02.756Z,101055.66
2023-03-21T09:01:15.565Z,101060.66
2023-03-21T09:05:28.444Z,101054.00
2023-03-21T09:09:41.400Z,101050.38
2023-03-21T09:13:53.094Z,101043.47
2023-03-21T09:18:15.002Z,101032.69
2023-03-21T09:22:27.759Z,101040.50
2023-03-21T09:26:39.714Z,101038.66
2023-03-21T09:30:51.721Z,101029.88
2023-03-21T09:35:05.580Z,101034.59
2023-03-21T09:39:17.324Z,101026.41
2023-03-21T09:43:49.522Z,101017.00
2023-03-21T09:48:02.779Z,101020.97
2023-03-21T09:52:58.245Z,101018.44
2023-03-21T09:57:38.137Z,101002.56
2023-03-21T10:01:50.396Z,101005.50
2023-03-21T10:06:10.042Z,100998.59
2023-03-21T10:10:27.796Z,100998.03
2023-03-21T10:14:43.340Z,100991.88
2023-03-21T10:18:55.726Z,100970.19
2023-03-21T10:23:13.122Z,100928.84
2023-03-21T10:27:24.759Z,100975.94
2023-03-21T10:31:36.647Z,100948.72
2023-03-21T10:35:55.615Z,100969.78
2023-03-21T10:40:12.135Z,100962.53
2023-03-21T10:44:31.179Z,100961.69
2023-03-21T10:48:47.504Z,100951.97
2023-03-21T10:53:00.768Z,100955.13
2023-03-21T10:57:21.677Z,100953.69
2023-03-21T11:01:43.312Z,100947.66
2023-03-21T11:06:28.244Z,100961.28
2023-03-21T11:11:24.560Z,100955.72
2023-03-21T11:16:08.581Z,100956.88
2023-03-21T11:20:21.100Z,100951.94
2023-03-21T11:24:35.536Z,100939.00
2023-03-21T11:28:47.471Z,100946.28
2023-03-21T11:33:06.285Z,100952.50
2023-03-21T11:37:26.387Z,100962.03
2023-03-21T11:41:40.876Z,100945.13
2023-03-21T11:46:08.752Z,100939.31
2023-03-21T11:50:27.335Z,100935.56
2023-03-21T11:55:05.760Z,100919.31
2023-03-21T11:59:46.439Z,100918.06
2023-03-21T12:04:20.987Z,100923.31
2023-03-21T12:08:49.290Z,100904.72
2023-03-21T12:13:09.857Z,100916.94
2023-03-21T12:17:36.298Z,100890.47
2023-03-21T12:21:47.868Z,100902.66
2023-03-21T12:26:29.884Z,100890.72
2023-03-21T12:30:56.724Z,100874.31
2023-03-21T12:35:24.416Z,100874.09
2023-03-21T12:39:40.005Z,100879.38
2023-03-21T12:44:05.761Z,100883.09
2023-03-21T12:48:33.766Z,100878.91
2023-03-21T12:52:49.935Z,100877.50
2023-03-21T12:57:04.935Z,100875.91
2023-03-21T13:01:21.544Z,100861.16
2023-03-21T13:06:04.079Z,100848.16
2023-03-21T13:10:21.042Z,100853.09
2023-03-21T13:14:39.660Z,100847.25
2023-03-21T13:19:07.629Z,100846.38
2023-03-21T13:23:24.936Z,100835.53
2023-03-21T13:27:39.465Z,100848.59
2023-03-21T13:31:55.898Z,100832.91
2023-03-21T13:36:09.359Z,100841.91
2023-03-21T13:40:37.841Z,100840.66
2023-03-21T13:44:55.751Z,100808.78
2023-03-21T13:49:10.302Z,100831.66
2023-03-21T13:53:24.279Z,100826.63
2023-03-21T13:57:38.755Z,100817.94
2023-03-21T14:02:00.894Z,100803.66
2023-03-21T14:06:13.494Z,100808.03
2023-03-21T14:10:35.881Z,100796.19
2023-03-21T14:14:52.360Z,100798.53
2023-03-21T14:19:05.598Z,100787.63
2023-03-21T14:23:17.553Z,100776.84
2023-03-21T14:27:35.374Z,100770.72
2023-03-21T14:31:50.331Z,100784.03
2023-03-21T14:36:08.904Z,100771.69
2023-03-21T14:40:25.916Z,100782.56
2023-03-21T14:44:58.099Z,100776.69
2023-03-21T14:49:11.746Z,100749.06
2023-03-21T14:53:27.241Z,100753.63
2023-03-21T14:57:39.251Z,100750.09
2023-03-21T15:01:54.125Z,100744.59
2023-03-21T15:06:13.414Z,100737.41
2023-03-21T15:10:27.587Z,100749.03
2023-03-21T15:14:40.584Z,100758.63
2023-03-21T15:18:52.740Z,100756.63
2023-03-21T15:23:13.250Z,100752.22
2023-03-21T15:27:25.743Z,100752.59
2023-03-21T15:31:40.436Z,100754.13
2023-03-21T15:35:55.598Z,100739.47
2023-03-21T15:40:21.574Z,100748.97
2023-03-21T15:44:35.164Z,100737.25
2023-03-21T15:48:46.805Z,100728.06
2023-03-21T15:53:01.178Z,100737.81
2023-03-21T15:57:34.528Z,100749.84
2023-03-21T16:01:50.972Z,100749.78
2023-03-21T16:06:16.786Z,100747.66
2023-03-21T16:10:38.914Z,100745.84
2023-03-21T16:14:51.112Z,100755.53
2023-03-21T16:19:03.612Z,100755.28
2023-03-21T16:23:16.216Z,100745.28
2023-03-21T16:27:28.453Z,100748.25
2023-03-21T16:31:40.410Z,100738.00
2023-03-21T16:35:52.175Z,100750.94
2023-03-21T16:40:12.554Z,100758.25
2023-03-21T16:44:24.347Z,100756.50
2023-03-21T16:48:36.042Z,100767.47
2023-03-21T16:52:48.378Z,100772.34
2023-03-21T16:57:00.180Z,100777.69
2023-03-21T17:01:19.146Z,100775.88
2023-03-21T17:05:30.945Z,100775.22
2023-03-21T17:09:47.938Z,100785.69
2023-03-21T17:13:59.576Z,100781.72
2023-03-21T17:18:12.185Z,100790.91
2023-03-21T17:22:23.788Z,100781.78
2023-03-21T17:26:36.359Z,100792.84
2023-03-21T17:30:48.068Z,100789.56
2023-03-21T17:34:59.677Z,100776.00
2023-03-21T17:39:18.327Z,100769.22
2023-03-21T17:43:30.102Z,100770.78
2023-03-21T17:47:42.212Z,100778.53
2023-03-21T17:51:53.879Z,100781.13
2023-03-21T17:56:06.844Z,100791.44
2023-03-21T18:00:22.916Z,100784.53
2023-03-21T18:04:34.697Z,100780.78
2023-03-21T18:08:48.161Z,100775.41
2023-03-21T18:13:00.297Z,100773.94
2023-03-21T18:17:12.021Z,100757.06
2023-03-21T18:21:26.185Z,100765.50
2023-03-21T18:25:41.791Z,100738.81
2023-03-21T18:30:25.846Z,100735.66
2023-03-21T18:34:25.290Z,100758.72
2023-03-21T18:38:37.166Z,100741.63
2023-03-21T18:43:41.418Z,100759.28
2023-03-21T18:47:20.713Z,100747.47
2023-03-21T18:51:32.669Z,100756.72
2023-03-21T18:55:46.530Z,100758.47
2023-03-21T19:00:00.111Z,100740.66
2023-03-21T19:04:22.989Z,100755.09
2023-03-21T19:08:41.766Z,100763.97
2023-03-21T19:12:54.808Z,100763.06
2023-03-21T19:17:56.441Z,100764.22
2023-03-21T19:21:39.793Z,100749.47
2023-03-21T19:25:51.455Z,100760.25
2023-03-21T19:30:14.486Z,100768.44
2023-03-21T19:34:28.718Z,100744.09
2023-03-21T19:38:40.739Z,100746.09
2023-03-21T19:42:52.989Z,100757.78
2023-03-21T19:47:04.693Z,100749.69
2023-03-21T19:51:32.470Z,100758.84
2023-03-21T19:55:44.821Z,100746.28
2023-03-21T19:59:56.720Z,100753.91
2023-03-21T20:04:09.046Z,100743.84
2023-03-21T20:08:20.709Z,100757.44
2023-03-21T20:12:33.215Z,100739.75
2023-03-21T20:16:44.910Z,100729.19
2023-03-21T20:20:57.277Z,100734.31
2023-03-21T20:25:09.811Z,100715.75
2023-03-21T20:33:53.178Z,100731.97
2023-03-21T20:38:04.837Z,100723.03
2023-03-21T20:42:16.476Z,100733.22
2023-03-21T20:46:28.486Z,100718.97
2023-03-21T20:50:40.332Z,100726.44
2023-03-21T20:54:52.010Z,100724.00
2023-03-21T20:59:16.799Z,100717.44
2023-03-21T21:03:39.159Z,100733.94
2023-03-21T21:07:50.809Z,100723.50
2023-03-21T21:12:06.934Z,100726.19
2023-03-21T21:16:19.373Z,100695.75
2023-03-21T21:20:33.602Z,100694.09
2023-03-21T21:24:45.490Z,100691.88
2023-03-21T21:28:58.801Z,100689.41
2023-03-21T21:33:10.569Z,100710.13
2023-03-21T21:37:22.858Z,100696.25
2023-03-21T21:41:34.583Z,100682.09
2023-03-21T21:45:47.483Z,100665.78
2023-03-21T21:49:59.160Z,100676.28
2023-03-21T21:54:11.054Z,100667.97
2023-03-21T21:58:22.796Z,100675.59
2023-03-21T22:02:34.552Z,100667.84
2023-03-21T22:06:47.861Z,100662.47
2023-03-21T22:11:03.505Z,100658.38
2023-03-21T22:15:15.153Z,100669.28
2023-03-21T22:19:27.711Z,100664.19
2023-03-21T22:23:41.477Z,100675.09
2023-03-21T22:27:53.323Z,100650.38
2023-03-21T22:32:05.438Z,100668.97
2023-03-21T22:36:17.091Z,100658.06
2023-03-21T22:40:28.837Z,100661.22
2023-03-21T22:44:40.637Z,100666.72
2023-03-21T22:48:52.323Z,100661.84
2023-03-21T22:53:03.956Z,100655.25
2023-03-21T22:57:16.741Z,100655.09
2023-03-21T23:01:28.366Z,100652.88
2023-03-21T23:05:44.529Z,100655.94
2023-03-21T23:09:56.618Z,100642.44
2023-03-21T23:14:08.902Z,100643.47
2023-03-21T23:18:20.576Z,100640.84
2023-03-21T23:22:32.885Z,100639.44
2023-03-21T23:26:44.542Z,100651.59
2023-03-21T23:30:56.301Z,100631.94
2023-03-21T23:35:08.888Z,100634.63
2023-03-21T23:39:20.499Z,100640.09
2023-03-21T23:43:32.097Z,100641.94
2023-03-21T23:47:44.093Z,100647.75
2023-03-21T23:51:55.918Z,100622.97
2023-03-21T23:56:18.978Z,100632.97
